sensor_id;sensor_type;location;lat;lon;timestamp;P1;P2;P0
36523;PMS5003;66329;46.796;9.824;2023-01-26T00:00:23;3;3;
36523;PMS5003;66329;46.796;9.824;2023-01-26T00:02:50;3;3;
36523;PMS5003;66329;46.796;9.824;2023-01-26T00:05:18;2;2;
36523;PMS5003;66329;46.796;9.824;2023-01-26T00:07:44;2;2;
36523;PMS5003;66329;46.796;9.824;2023-01-26T00:10:12;3;3;
36523;PMS5003;66329;46.796;9.824;2023-01-26T00:12:39;3;3;
36523;PMS5003;66329;46.796;9.824;2023-01-26T00:15:07;4;4;
36523;PMS5003;66329;46.796;9.824;2023-01-26T00:17:34;3;3;
36523;PMS5003;66329;46.796;9.824;2023-01-26T00:20:02;3;3;
36523;PMS5003;66329;46.796;9.824;2023-01-26T00:22:29;3;3;
36523;PMS5003;66329;46.796;9.824;2023-01-26T00:24:56;4;2;
36523;PMS5003;66329;46.796;9.824;2023-01-26T00:27:23;2;2;
36523;PMS5003;66329;46.796;9.824;2023-01-26T00:29:50;2;2;
36523;PMS5003;66329;46.796;9.824;2023-01-26T00:32:17;3;3;
36523;PMS5003;66329;46.796;9.824;2023-01-26T00:34:44;3;2;
36523;PMS5003;66329;46.796;9.824;2023-01-26T00:37:12;2;2;
36523;PMS5003;66329;46.796;9.824;2023-01-26T00:39:39;2;2;
36523;PMS5003;66329;46.796;9.824;2023-01-26T00:42:06;2;2;
36523;PMS5003;66329;46.796;9.824;2023-01-26T00:44:33;2;2;
36523;PMS5003;66329;46.796;9.824;2023-01-26T00:47:00;2;2;
36523;PMS5003;66329;46.796;9.824;2023-01-26T00:49:27;4;2;
36523;PMS5003;66329;46.796;9.824;2023-01-26T00:51:59;2;2;
36523;PMS5003;66329;46.796;9.824;2023-01-26T00:54:27;3;3;
36523;PMS5003;66329;46.796;9.824;2023-01-26T00:56:55;2;2;
36523;PMS5003;66329;46.796;9.824;2023-01-26T00:59:22;2;2;
36523;PMS5003;66329;46.796;9.824;2023-01-26T01:01:49;2;2;
36523;PMS5003;66329;46.796;9.824;2023-01-26T01:04:16;1;1;
36523;PMS5003;66329;46.796;9.824;2023-01-26T01:06:43;2;2;
36523;PMS5003;66329;46.796;9.824;2023-01-26T01:09:10;4;4;
36523;PMS5003;66329;46.796;9.824;2023-01-26T01:11:38;2;2;
36523;PMS5003;66329;46.796;9.824;2023-01-26T01:14:06;1;1;
36523;PMS5003;66329;46.796;9.824;2023-01-26T01:16:34;1;1;
36523;PMS5003;66329;46.796;9.824;2023-01-26T01:19:02;2;2;
36523;PMS5003;66329;46.796;9.824;2023-01-26T01:21:30;1;1;
36523;PMS5003;66329;46.796;9.824;2023-01-26T01:23:58;3;2;
36523;PMS5003;66329;46.796;9.824;2023-01-26T01:26:27;2;2;
36523;PMS5003;66329;46.796;9.824;2023-01-26T01:28:55;1;1;
36523;PMS5003;66329;46.796;9.824;2023-01-26T01:31:24;2;2;
36523;PMS5003;66329;46.796;9.824;2023-01-26T01:33:52;2;2;
36523;PMS5003;66329;46.796;9.824;2023-01-26T01:36:26;2;2;
36523;PMS5003;66329;46.796;9.824;2023-01-26T01:38:55;3;1;
36523;PMS5003;66329;46.796;9.824;2023-01-26T01:41:24;1;1;
36523;PMS5003;66329;46.796;9.824;2023-01-26T01:44:09;1;1;
36523;PMS5003;66329;46.796;9.824;2023-01-26T01:46:39;1;1;
36523;PMS5003;66329;46.796;9.824;2023-01-26T01:49:13;2;2;
36523;PMS5003;66329;46.796;9.824;2023-01-26T01:51:46;1;1;
36523;PMS5003;66329;46.796;9.824;2023-01-26T01:54:19;0;0;
36523;PMS5003;66329;46.796;9.824;2023-01-26T01:56:52;2;2;
36523;PMS5003;66329;46.796;9.824;2023-01-26T01:59:24;0;0;
36523;PMS5003;66329;46.796;9.824;2023-01-26T02:01:52;2;2;
36523;PMS5003;66329;46.796;9.824;2023-01-26T02:04:23;1;1;
36523;PMS5003;66329;46.796;9.824;2023-01-26T02:06:52;1;1;
36523;PMS5003;66329;46.796;9.824;2023-01-26T02:09:25;2;0;
36523;PMS5003;66329;46.796;9.824;2023-01-26T02:11:58;1;1;
36523;PMS5003;66329;46.796;9.824;2023-01-26T02:14:28;2;2;
36523;PMS5003;66329;46.796;9.824;2023-01-26T02:16:57;1;1;
36523;PMS5003;66329;46.796;9.824;2023-01-26T02:19:33;2;0;
36523;PMS5003;66329;46.796;9.824;2023-01-26T02:22:09;1;1;
36523;PMS5003;66329;46.796;9.824;2023-01-26T02:24:46;2;2;
36523;PMS5003;66329;46.796;9.824;2023-01-26T02:27:21;1;1;
36523;PMS5003;66329;46.796;9.824;2023-01-26T02:29:49;1;1;
36523;PMS5003;66329;46.796;9.824;2023-01-26T02:32:23;2;2;
36523;PMS5003;66329;46.796;9.824;2023-01-26T02:34:54;1;1;
36523;PMS5003;66329;46.796;9.824;2023-01-26T02:37:23;1;1;
36523;PMS5003;66329;46.796;9.824;2023-01-26T02:39:52;1;1;
36523;PMS5003;66329;46.796;9.824;2023-01-26T02:42:25;2;2;
36523;PMS5003;66329;46.796;9.824;2023-01-26T02:44:55;1;1;
36523;PMS5003;66329;46.796;9.824;2023-01-26T02:47:24;2;1;
36523;PMS5003;66329;46.796;9.824;2023-01-26T02:49:52;2;2;
36523;PMS5003;66329;46.796;9.824;2023-01-26T02:52:22;1;1;
36523;PMS5003;66329;46.796;9.824;2023-01-26T02:54:53;1;1;
36523;PMS5003;66329;46.796;9.824;2023-01-26T02:57:22;0;0;
36523;PMS5003;66329;46.796;9.824;2023-01-26T02:59:51;0;0;
36523;PMS5003;66329;46.796;9.824;2023-01-26T03:02:19;2;2;
36523;PMS5003;66329;46.796;9.824;2023-01-26T03:04:48;2;2;
36523;PMS5003;66329;46.796;9.824;2023-01-26T03:07:16;1;1;
36523;PMS5003;66329;46.796;9.824;2023-01-26T03:09:44;2;2;
36523;PMS5003;66329;46.796;9.824;2023-01-26T03:12:12;1;1;
36523;PMS5003;66329;46.796;9.824;2023-01-26T03:14:40;1;1;
36523;PMS5003;66329;46.796;9.824;2023-01-26T03:17:08;2;2;
36523;PMS5003;66329;46.796;9.824;2023-01-26T03:19:36;1;1;
36523;PMS5003;66329;46.796;9.824;2023-01-26T03:22:04;0;0;
36523;PMS5003;66329;46.796;9.824;2023-01-26T03:24:34;1;1;
36523;PMS5003;66329;46.796;9.824;2023-01-26T03:27:02;0;0;
36523;PMS5003;66329;46.796;9.824;2023-01-26T03:29:32;2;2;
36523;PMS5003;66329;46.796;9.824;2023-01-26T03:32:00;1;1;
36523;PMS5003;66329;46.796;9.824;2023-01-26T03:34:28;2;2;
36523;PMS5003;66329;46.796;9.824;2023-01-26T03:36:56;2;2;
36523;PMS5003;66329;46.796;9.824;2023-01-26T03:39:24;2;2;
36523;PMS5003;66329;46.796;9.824;2023-01-26T03:41:52;0;0;
36523;PMS5003;66329;46.796;9.824;2023-01-26T03:44:20;0;0;
36523;PMS5003;66329;46.796;9.824;2023-01-26T03:46:49;0;0;
36523;PMS5003;66329;46.796;9.824;2023-01-26T03:49:17;0;0;
36523;PMS5003;66329;46.796;9.824;2023-01-26T03:51:44;1;1;
36523;PMS5003;66329;46.796;9.824;2023-01-26T03:54:11;1;1;
36523;PMS5003;66329;46.796;9.824;2023-01-26T03:56:39;1;1;
36523;PMS5003;66329;46.796;9.824;2023-01-26T03:59:07;1;1;
36523;PMS5003;66329;46.796;9.824;2023-01-26T04:01:35;1;1;
36523;PMS5003;66329;46.796;9.824;2023-01-26T04:04:04;1;1;
36523;PMS5003;66329;46.796;9.824;2023-01-26T04:06:32;1;0;
36523;PMS5003;66329;46.796;9.824;2023-01-26T04:09:00;1;1;
36523;PMS5003;66329;46.796;9.824;2023-01-26T04:11:28;2;1;
36523;PMS5003;66329;46.796;9.824;2023-01-26T04:13:55;1;1;
36523;PMS5003;66329;46.796;9.824;2023-01-26T04:16:22;1;0;
36523;PMS5003;66329;46.796;9.824;2023-01-26T04:18:56;0;0;
36523;PMS5003;66329;46.796;9.824;2023-01-26T04:21:23;1;1;
36523;PMS5003;66329;46.796;9.824;2023-01-26T04:23:51;1;1;
36523;PMS5003;66329;46.796;9.824;2023-01-26T04:26:20;1;1;
36523;PMS5003;66329;46.796;9.824;2023-01-26T04:28:46;1;1;
36523;PMS5003;66329;46.796;9.824;2023-01-26T04:31:14;1;1;
36523;PMS5003;66329;46.796;9.824;2023-01-26T04:33:41;1;1;
36523;PMS5003;66329;46.796;9.824;2023-01-26T04:36:08;1;1;
36523;PMS5003;66329;46.796;9.824;2023-01-26T04:38:36;0;0;
36523;PMS5003;66329;46.796;9.824;2023-01-26T04:41:03;0;0;
36523;PMS5003;66329;46.796;9.824;2023-01-26T04:43:30;2;2;
36523;PMS5003;66329;46.796;9.824;2023-01-26T04:45:58;1;1;
36523;PMS5003;66329;46.796;9.824;2023-01-26T04:48:26;0;0;
36523;PMS5003;66329;46.796;9.824;2023-01-26T04:50:54;0;0;
36523;PMS5003;66329;46.796;9.824;2023-01-26T04:53:22;2;1;
36523;PMS5003;66329;46.796;9.824;2023-01-26T04:55:50;1;1;
36523;PMS5003;66329;46.796;9.824;2023-01-26T04:58:18;0;0;
36523;PMS5003;66329;46.796;9.824;2023-01-26T05:00:48;0;0;
36523;PMS5003;66329;46.796;9.824;2023-01-26T05:03:16;1;1;
36523;PMS5003;66329;46.796;9.824;2023-01-26T05:05:45;0;0;
36523;PMS5003;66329;46.796;9.824;2023-01-26T05:08:15;1;1;
36523;PMS5003;66329;46.796;9.824;2023-01-26T05:10:42;0;0;
36523;PMS5003;66329;46.796;9.824;2023-01-26T05:13:10;0;0;
36523;PMS5003;66329;46.796;9.824;2023-01-26T05:15:37;1;1;
36523;PMS5003;66329;46.796;9.824;2023-01-26T05:18:05;0;0;
36523;PMS5003;66329;46.796;9.824;2023-01-26T05:20:33;2;1;
36523;PMS5003;66329;46.796;9.824;2023-01-26T05:23:00;1;1;
36523;PMS5003;66329;46.796;9.824;2023-01-26T05:25:27;0;0;
36523;PMS5003;66329;46.796;9.824;2023-01-26T05:27:54;0;0;
36523;PMS5003;66329;46.796;9.824;2023-01-26T05:30:21;0;0;
36523;PMS5003;66329;46.796;9.824;2023-01-26T05:32:48;0;0;
36523;PMS5003;66329;46.796;9.824;2023-01-26T05:35:15;0;0;
36523;PMS5003;66329;46.796;9.824;2023-01-26T05:37:42;0;0;
36523;PMS5003;66329;46.796;9.824;2023-01-26T05:40:10;1;1;
36523;PMS5003;66329;46.796;9.824;2023-01-26T05:42:38;0;0;
36523;PMS5003;66329;46.796;9.824;2023-01-26T05:45:05;1;1;
36523;PMS5003;66329;46.796;9.824;2023-01-26T05:47:33;1;1;
36523;PMS5003;66329;46.796;9.824;2023-01-26T05:50:00;1;1;
36523;PMS5003;66329;46.796;9.824;2023-01-26T05:52:27;1;1;
36523;PMS5003;66329;46.796;9.824;2023-01-26T05:54:54;1;1;
36523;PMS5003;66329;46.796;9.824;2023-01-26T05:57:21;1;1;
36523;PMS5003;66329;46.796;9.824;2023-01-26T05:59:48;1;1;
36523;PMS5003;66329;46.796;9.824;2023-01-26T06:02:15;0;0;
36523;PMS5003;66329;46.796;9.824;2023-01-26T06:04:43;1;1;
36523;PMS5003;66329;46.796;9.824;2023-01-26T06:07:10;1;1;
36523;PMS5003;66329;46.796;9.824;2023-01-26T06:09:38;1;1;
36523;PMS5003;66329;46.796;9.824;2023-01-26T06:12:06;1;1;
36523;PMS5003;66329;46.796;9.824;2023-01-26T06:14:38;1;1;
36523;PMS5003;66329;46.796;9.824;2023-01-26T06:17:17;0;0;
36523;PMS5003;66329;46.796;9.824;2023-01-26T06:19:44;0;0;
36523;PMS5003;66329;46.796;9.824;2023-01-26T06:22:12;1;1;
36523;PMS5003;66329;46.796;9.824;2023-01-26T06:24:40;1;1;
36523;PMS5003;66329;46.796;9.824;2023-01-26T06:27:08;1;1;
36523;PMS5003;66329;46.796;9.824;2023-01-26T06:29:38;1;1;
36523;PMS5003;66329;46.796;9.824;2023-01-26T06:32:05;0;0;
36523;PMS5003;66329;46.796;9.824;2023-01-26T06:34:39;1;1;
36523;PMS5003;66329;46.796;9.824;2023-01-26T06:37:06;0;0;
36523;PMS5003;66329;46.796;9.824;2023-01-26T06:39:34;2;2;
36523;PMS5003;66329;46.796;9.824;2023-01-26T06:42:02;3;2;
36523;PMS5003;66329;46.796;9.824;2023-01-26T06:44:29;1;1;
36523;PMS5003;66329;46.796;9.824;2023-01-26T06:46:56;1;1;
36523;PMS5003;66329;46.796;9.824;2023-01-26T06:49:23;2;2;
36523;PMS5003;66329;46.796;9.824;2023-01-26T06:51:53;1;1;
36523;PMS5003;66329;46.796;9.824;2023-01-26T06:54:24;3;3;
36523;PMS5003;66329;46.796;9.824;2023-01-26T06:56:51;4;4;
36523;PMS5003;66329;46.796;9.824;2023-01-26T06:59:18;4;3;
36523;PMS5003;66329;46.796;9.824;2023-01-26T07:01:46;3;3;
36523;PMS5003;66329;46.796;9.824;2023-01-26T07:04:14;2;2;
36523;PMS5003;66329;46.796;9.824;2023-01-26T07:06:42;1;1;
36523;PMS5003;66329;46.796;9.824;2023-01-26T07:09:09;3;3;
36523;PMS5003;66329;46.796;9.824;2023-01-26T07:11:37;2;2;
36523;PMS5003;66329;46.796;9.824;2023-01-26T07:14:05;4;4;
36523;PMS5003;66329;46.796;9.824;2023-01-26T07:16:33;1;1;
36523;PMS5003;66329;46.796;9.824;2023-01-26T07:19:01;5;4;
36523;PMS5003;66329;46.796;9.824;2023-01-26T07:21:28;2;2;
36523;PMS5003;66329;46.796;9.824;2023-01-26T07:23:56;4;4;
36523;PMS5003;66329;46.796;9.824;2023-01-26T07:26:23;5;5;
36523;PMS5003;66329;46.796;9.824;2023-01-26T07:28:51;3;3;
36523;PMS5003;66329;46.796;9.824;2023-01-26T07:31:18;6;6;
36523;PMS5003;66329;46.796;9.824;2023-01-26T07:33:47;4;4;
36523;PMS5003;66329;46.796;9.824;2023-01-26T07:36:15;4;4;
36523;PMS5003;66329;46.796;9.824;2023-01-26T07:38:42;5;5;
36523;PMS5003;66329;46.796;9.824;2023-01-26T07:41:11;5;5;
36523;PMS5003;66329;46.796;9.824;2023-01-26T07:43:45;4;2;
36523;PMS5003;66329;46.796;9.824;2023-01-26T07:46:12;4;4;
36523;PMS5003;66329;46.796;9.824;2023-01-26T07:48:39;3;3;
36523;PMS5003;66329;46.796;9.824;2023-01-26T07:51:08;6;6;
36523;PMS5003;66329;46.796;9.824;2023-01-26T07:53:36;3;3;
36523;PMS5003;66329;46.796;9.824;2023-01-26T07:56:06;5;5;
36523;PMS5003;66329;46.796;9.824;2023-01-26T07:58:39;4;4;
36523;PMS5003;66329;46.796;9.824;2023-01-26T08:01:08;4;4;
36523;PMS5003;66329;46.796;9.824;2023-01-26T08:03:42;3;3;
36523;PMS5003;66329;46.796;9.824;2023-01-26T08:06:09;5;5;
36523;PMS5003;66329;46.796;9.824;2023-01-26T08:08:37;5;5;
36523;PMS5003;66329;46.796;9.824;2023-01-26T08:11:06;4;4;
36523;PMS5003;66329;46.796;9.824;2023-01-26T08:13:34;5;5;
36523;PMS5003;66329;46.796;9.824;2023-01-26T08:16:02;5;5;
36523;PMS5003;66329;46.796;9.824;2023-01-26T08:18:31;5;5;
36523;PMS5003;66329;46.796;9.824;2023-01-26T08:21:10;4;4;
36523;PMS5003;66329;46.796;9.824;2023-01-26T08:23:50;4;4;
36523;PMS5003;66329;46.796;9.824;2023-01-26T08:26:18;6;6;
36523;PMS5003;66329;46.796;9.824;2023-01-26T08:28:46;5;5;
36523;PMS5003;66329;46.796;9.824;2023-01-26T08:31:14;5;4;
36523;PMS5003;66329;46.796;9.824;2023-01-26T08:33:45;5;5;
36523;PMS5003;66329;46.796;9.824;2023-01-26T08:36:13;4;4;
36523;PMS5003;66329;46.796;9.824;2023-01-26T08:38:41;5;5;
36523;PMS5003;66329;46.796;9.824;2023-01-26T08:41:09;4;4;
36523;PMS5003;66329;46.796;9.824;2023-01-26T08:43:37;3;3;
36523;PMS5003;66329;46.796;9.824;2023-01-26T08:46:04;5;5;
36523;PMS5003;66329;46.796;9.824;2023-01-26T08:48:32;4;4;
36523;PMS5003;66329;46.796;9.824;2023-01-26T08:51:00;5;5;
36523;PMS5003;66329;46.796;9.824;2023-01-26T08:53:29;4;4;
36523;PMS5003;66329;46.796;9.824;2023-01-26T08:55:59;4;4;
36523;PMS5003;66329;46.796;9.824;2023-01-26T08:58:27;5;5;
36523;PMS5003;66329;46.796;9.824;2023-01-26T09:00:54;4;4;
36523;PMS5003;66329;46.796;9.824;2023-01-26T09:03:22;6;6;
36523;PMS5003;66329;46.796;9.824;2023-01-26T09:05:49;4;4;
36523;PMS5003;66329;46.796;9.824;2023-01-26T09:08:16;4;4;
36523;PMS5003;66329;46.796;9.824;2023-01-26T09:10:43;4;4;
36523;PMS5003;66329;46.796;9.824;2023-01-26T09:13:10;4;4;
36523;PMS5003;66329;46.796;9.824;2023-01-26T09:15:37;6;5;
36523;PMS5003;66329;46.796;9.824;2023-01-26T09:18:05;4;4;
36523;PMS5003;66329;46.796;9.824;2023-01-26T09:20:32;5;5;
36523;PMS5003;66329;46.796;9.824;2023-01-26T09:22:59;5;5;
36523;PMS5003;66329;46.796;9.824;2023-01-26T09:25:27;6;4;
36523;PMS5003;66329;46.796;9.824;2023-01-26T09:27:54;8;6;
36523;PMS5003;66329;46.796;9.824;2023-01-26T09:30:21;4;4;
36523;PMS5003;66329;46.796;9.824;2023-01-26T09:32:48;6;6;
36523;PMS5003;66329;46.796;9.824;2023-01-26T09:35:15;5;5;
36523;PMS5003;66329;46.796;9.824;2023-01-26T09:37:42;5;5;
36523;PMS5003;66329;46.796;9.824;2023-01-26T09:40:13;6;4;
36523;PMS5003;66329;46.796;9.824;2023-01-26T09:42:45;5;5;
36523;PMS5003;66329;46.796;9.824;2023-01-26T09:45:26;9;6;
36523;PMS5003;66329;46.796;9.824;2023-01-26T09:48:04;5;5;
36523;PMS5003;66329;46.796;9.824;2023-01-26T09:50:44;5;5;
36523;PMS5003;66329;46.796;9.824;2023-01-26T09:53:16;5;5;
36523;PMS5003;66329;46.796;9.824;2023-01-26T09:55:47;5;5;
36523;PMS5003;66329;46.796;9.824;2023-01-26T09:58:17;3;3;
36523;PMS5003;66329;46.796;9.824;2023-01-26T10:00:53;5;5;
36523;PMS5003;66329;46.796;9.824;2023-01-26T10:03:27;6;6;
36523;PMS5003;66329;46.796;9.824;2023-01-26T10:06:03;3;3;
36523;PMS5003;66329;46.796;9.824;2023-01-26T10:08:37;3;3;
36523;PMS5003;66329;46.796;9.824;2023-01-26T10:11:11;6;5;
36523;PMS5003;66329;46.796;9.824;2023-01-26T10:13:45;7;7;
36523;PMS5003;66329;46.796;9.824;2023-01-26T10:16:16;5;5;
36523;PMS5003;66329;46.796;9.824;2023-01-26T10:18:47;5;5;
36523;PMS5003;66329;46.796;9.824;2023-01-26T10:21:21;5;5;
36523;PMS5003;66329;46.796;9.824;2023-01-26T10:23:52;6;6;
36523;PMS5003;66329;46.796;9.824;2023-01-26T10:26:21;4;4;
36523;PMS5003;66329;46.796;9.824;2023-01-26T10:28:49;5;5;
36523;PMS5003;66329;46.796;9.824;2023-01-26T10:31:19;5;5;
36523;PMS5003;66329;46.796;9.824;2023-01-26T10:33:49;5;5;
36523;PMS5003;66329;46.796;9.824;2023-01-26T10:36:18;6;5;
36523;PMS5003;66329;46.796;9.824;2023-01-26T10:38:46;5;5;
36523;PMS5003;66329;46.796;9.824;2023-01-26T10:41:22;4;4;
36523;PMS5003;66329;46.796;9.824;2023-01-26T10:43:53;7;6;
36523;PMS5003;66329;46.796;9.824;2023-01-26T10:46:23;5;5;
36523;PMS5003;66329;46.796;9.824;2023-01-26T10:48:54;7;4;
36523;PMS5003;66329;46.796;9.824;2023-01-26T10:51:31;5;5;
36523;PMS5003;66329;46.796;9.824;2023-01-26T10:54:32;10;7;
36523;PMS5003;66329;46.796;9.824;2023-01-26T10:57:01;5;5;
36523;PMS5003;66329;46.796;9.824;2023-01-26T10:59:31;7;7;
36523;PMS5003;66329;46.796;9.824;2023-01-26T11:02:01;6;6;
36523;PMS5003;66329;46.796;9.824;2023-01-26T11:05:00;6;6;
36523;PMS5003;66329;46.796;9.824;2023-01-26T11:07:31;6;6;
36523;PMS5003;66329;46.796;9.824;2023-01-26T11:10:15;6;4;
36523;PMS5003;66329;46.796;9.824;2023-01-26T11:12:44;8;6;
36523;PMS5003;66329;46.796;9.824;2023-01-26T11:15:15;6;5;
36523;PMS5003;66329;46.796;9.824;2023-01-26T11:17:46;6;5;
36523;PMS5003;66329;46.796;9.824;2023-01-26T11:20:27;3;3;
36523;PMS5003;66329;46.796;9.824;2023-01-26T11:23:07;4;4;
36523;PMS5003;66329;46.796;9.824;2023-01-26T11:25:43;4;4;
36523;PMS5003;66329;46.796;9.824;2023-01-26T11:28:29;6;6;
36523;PMS5003;66329;46.796;9.824;2023-01-26T11:31:11;4;4;
36523;PMS5003;66329;46.796;9.824;2023-01-26T11:33:49;6;6;
36523;PMS5003;66329;46.796;9.824;2023-01-26T11:36:27;5;5;
36523;PMS5003;66329;46.796;9.824;2023-01-26T11:39:05;5;4;
36523;PMS5003;66329;46.796;9.824;2023-01-26T11:41:45;5;5;
36523;PMS5003;66329;46.796;9.824;2023-01-26T11:44:24;5;5;
36523;PMS5003;66329;46.796;9.824;2023-01-26T11:47:20;6;5;
36523;PMS5003;66329;46.796;9.824;2023-01-26T11:50:04;3;2;
36523;PMS5003;66329;46.796;9.824;2023-01-26T11:52:47;4;4;
36523;PMS5003;66329;46.796;9.824;2023-01-26T11:55:24;6;4;
36523;PMS5003;66329;46.796;9.824;2023-01-26T11:58:07;3;3;
36523;PMS5003;66329;46.796;9.824;2023-01-26T12:00:48;2;2;
36523;PMS5003;66329;46.796;9.824;2023-01-26T12:03:19;4;4;
36523;PMS5003;66329;46.796;9.824;2023-01-26T12:05:51;3;3;
36523;PMS5003;66329;46.796;9.824;2023-01-26T12:08:24;5;4;
36523;PMS5003;66329;46.796;9.824;2023-01-26T12:10:58;3;3;
36523;PMS5003;66329;46.796;9.824;2023-01-26T12:13:32;3;3;
36523;PMS5003;66329;46.796;9.824;2023-01-26T12:16:06;6;6;
36523;PMS5003;66329;46.796;9.824;2023-01-26T12:18:42;3;3;
36523;PMS5003;66329;46.796;9.824;2023-01-26T12:21:13;5;5;
36523;PMS5003;66329;46.796;9.824;2023-01-26T12:23:43;3;3;
36523;PMS5003;66329;46.796;9.824;2023-01-26T12:26:17;2;2;
36523;PMS5003;66329;46.796;9.824;2023-01-26T12:28:47;2;2;
36523;PMS5003;66329;46.796;9.824;2023-01-26T12:31:24;3;3;
36523;PMS5003;66329;46.796;9.824;2023-01-26T12:33:59;2;2;
36523;PMS5003;66329;46.796;9.824;2023-01-26T12:36:30;2;2;
36523;PMS5003;66329;46.796;9.824;2023-01-26T12:39:10;2;2;
36523;PMS5003;66329;46.796;9.824;2023-01-26T12:41:45;3;3;
36523;PMS5003;66329;46.796;9.824;2023-01-26T12:44:26;4;2;
36523;PMS5003;66329;46.796;9.824;2023-01-26T12:47:02;2;2;
36523;PMS5003;66329;46.796;9.824;2023-01-26T12:49:39;2;2;
36523;PMS5003;66329;46.796;9.824;2023-01-26T12:52:14;2;2;
36523;PMS5003;66329;46.796;9.824;2023-01-26T12:54:48;4;4;
36523;PMS5003;66329;46.796;9.824;2023-01-26T12:57:23;3;3;
36523;PMS5003;66329;46.796;9.824;2023-01-26T13:00:00;3;2;
36523;PMS5003;66329;46.796;9.824;2023-01-26T13:02:31;2;2;
36523;PMS5003;66329;46.796;9.824;2023-01-26T13:05:00;5;5;
36523;PMS5003;66329;46.796;9.824;2023-01-26T13:07:30;3;3;
36523;PMS5003;66329;46.796;9.824;2023-01-26T13:10:09;4;3;
36523;PMS5003;66329;46.796;9.824;2023-01-26T13:12:55;1;1;
36523;PMS5003;66329;46.796;9.824;2023-01-26T13:15:25;2;2;
36523;PMS5003;66329;46.796;9.824;2023-01-26T13:17:55;2;2;
36523;PMS5003;66329;46.796;9.824;2023-01-26T13:20:27;2;2;
36523;PMS5003;66329;46.796;9.824;2023-01-26T13:23:44;4;2;
36523;PMS5003;66329;46.796;9.824;2023-01-26T13:26:12;1;1;
36523;PMS5003;66329;46.796;9.824;2023-01-26T13:28:42;3;3;
36523;PMS5003;66329;46.796;9.824;2023-01-26T13:31:10;3;3;
36523;PMS5003;66329;46.796;9.824;2023-01-26T13:33:38;4;4;
36523;PMS5003;66329;46.796;9.824;2023-01-26T13:36:09;3;3;
36523;PMS5003;66329;46.796;9.824;2023-01-26T13:38:40;2;2;
36523;PMS5003;66329;46.796;9.824;2023-01-26T13:41:13;3;3;
36523;PMS5003;66329;46.796;9.824;2023-01-26T13:43:49;1;1;
36523;PMS5003;66329;46.796;9.824;2023-01-26T13:46:23;2;2;
36523;PMS5003;66329;46.796;9.824;2023-01-26T13:48:54;5;3;
36523;PMS5003;66329;46.796;9.824;2023-01-26T13:51:22;4;4;
36523;PMS5003;66329;46.796;9.824;2023-01-26T13:53:53;2;2;
36523;PMS5003;66329;46.796;9.824;2023-01-26T13:56:24;5;4;
36523;PMS5003;66329;46.796;9.824;2023-01-26T13:59:02;3;3;
36523;PMS5003;66329;46.796;9.824;2023-01-26T14:01:31;2;2;
36523;PMS5003;66329;46.796;9.824;2023-01-26T14:04:10;1;1;
36523;PMS5003;66329;46.796;9.824;2023-01-26T14:06:45;2;2;
36523;PMS5003;66329;46.796;9.824;2023-01-26T14:09:15;2;2;
36523;PMS5003;66329;46.796;9.824;2023-01-26T14:11:43;3;3;
36523;PMS5003;66329;46.796;9.824;2023-01-26T14:14:21;1;1;
36523;PMS5003;66329;46.796;9.824;2023-01-26T14:16:51;4;4;
36523;PMS5003;66329;46.796;9.824;2023-01-26T14:19:20;3;3;
36523;PMS5003;66329;46.796;9.824;2023-01-26T14:21:49;3;3;
36523;PMS5003;66329;46.796;9.824;2023-01-26T14:24:18;2;2;
36523;PMS5003;66329;46.796;9.824;2023-01-26T14:26:51;3;2;
36523;PMS5003;66329;46.796;9.824;2023-01-26T14:29:20;3;2;
36523;PMS5003;66329;46.796;9.824;2023-01-26T14:31:50;3;3;
36523;PMS5003;66329;46.796;9.824;2023-01-26T14:34:19;2;2;
36523;PMS5003;66329;46.796;9.824;2023-01-26T14:37:03;3;3;
36523;PMS5003;66329;46.796;9.824;2023-01-26T14:39:32;4;4;
36523;PMS5003;66329;46.796;9.824;2023-01-26T14:41:59;3;3;
36523;PMS5003;66329;46.796;9.824;2023-01-26T14:44:27;4;4;
36523;PMS5003;66329;46.796;9.824;2023-01-26T14:46:55;2;2;
36523;PMS5003;66329;46.796;9.824;2023-01-26T14:49:30;3;3;
36523;PMS5003;66329;46.796;9.824;2023-01-26T14:52:12;5;5;
36523;PMS5003;66329;46.796;9.824;2023-01-26T14:54:46;3;3;
36523;PMS5003;66329;46.796;9.824;2023-01-26T14:57:17;4;4;
36523;PMS5003;66329;46.796;9.824;2023-01-26T14:59:47;4;4;
36523;PMS5003;66329;46.796;9.824;2023-01-26T15:02:17;6;5;
36523;PMS5003;66329;46.796;9.824;2023-01-26T15:04:47;3;3;
36523;PMS5003;66329;46.796;9.824;2023-01-26T15:07:20;1;1;
36523;PMS5003;66329;46.796;9.824;2023-01-26T15:09:57;4;4;
36523;PMS5003;66329;46.796;9.824;2023-01-26T15:12:24;4;4;
36523;PMS5003;66329;46.796;9.824;2023-01-26T15:14:55;5;3;
36523;PMS5003;66329;46.796;9.824;2023-01-26T15:17:28;4;4;
36523;PMS5003;66329;46.796;9.824;2023-01-26T15:19:56;3;3;
36523;PMS5003;66329;46.796;9.824;2023-01-26T15:22:24;6;6;
36523;PMS5003;66329;46.796;9.824;2023-01-26T15:25:15;2;2;
36523;PMS5003;66329;46.796;9.824;2023-01-26T15:27:53;5;3;
36523;PMS5003;66329;46.796;9.824;2023-01-26T15:30:24;6;5;
36523;PMS5003;66329;46.796;9.824;2023-01-26T15:32:53;4;4;
36523;PMS5003;66329;46.796;9.824;2023-01-26T15:35:21;3;3;
36523;PMS5003;66329;46.796;9.824;2023-01-26T15:37:59;5;5;
36523;PMS5003;66329;46.796;9.824;2023-01-26T15:40:28;7;5;
36523;PMS5003;66329;46.796;9.824;2023-01-26T15:43:11;5;5;
36523;PMS5003;66329;46.796;9.824;2023-01-26T15:45:39;3;3;
36523;PMS5003;66329;46.796;9.824;2023-01-26T15:48:08;4;3;
36523;PMS5003;66329;46.796;9.824;2023-01-26T15:50:35;4;4;
36523;PMS5003;66329;46.796;9.824;2023-01-26T15:53:02;5;5;
36523;PMS5003;66329;46.796;9.824;2023-01-26T15:55:34;6;5;
36523;PMS5003;66329;46.796;9.824;2023-01-26T15:58:02;3;3;
36523;PMS5003;66329;46.796;9.824;2023-01-26T16:00:29;5;5;
36523;PMS5003;66329;46.796;9.824;2023-01-26T16:02:56;5;4;
36523;PMS5003;66329;46.796;9.824;2023-01-26T16:05:25;4;4;
36523;PMS5003;66329;46.796;9.824;2023-01-26T16:07:52;4;4;
36523;PMS5003;66329;46.796;9.824;2023-01-26T16:10:19;4;4;
36523;PMS5003;66329;46.796;9.824;2023-01-26T16:12:47;4;3;
36523;PMS5003;66329;46.796;9.824;2023-01-26T16:15:19;4;4;
36523;PMS5003;66329;46.796;9.824;2023-01-26T16:17:53;5;5;
36523;PMS5003;66329;46.796;9.824;2023-01-26T16:20:21;5;5;
36523;PMS5003;66329;46.796;9.824;2023-01-26T16:22:48;4;4;
36523;PMS5003;66329;46.796;9.824;2023-01-26T16:25:18;5;5;
36523;PMS5003;66329;46.796;9.824;2023-01-26T16:27:50;4;4;
36523;PMS5003;66329;46.796;9.824;2023-01-26T16:30:18;7;6;
36523;PMS5003;66329;46.796;9.824;2023-01-26T16:33:03;6;6;
36523;PMS5003;66329;46.796;9.824;2023-01-26T16:35:31;5;5;
36523;PMS5003;66329;46.796;9.824;2023-01-26T16:37:58;7;6;
36523;PMS5003;66329;46.796;9.824;2023-01-26T16:40:27;5;5;
36523;PMS5003;66329;46.796;9.824;2023-01-26T16:43:00;5;5;
36523;PMS5003;66329;46.796;9.824;2023-01-26T16:45:29;7;5;
36523;PMS5003;66329;46.796;9.824;2023-01-26T16:47:56;4;4;
36523;PMS5003;66329;46.796;9.824;2023-01-26T16:50:24;6;6;
36523;PMS5003;66329;46.796;9.824;2023-01-26T16:52:52;6;6;
36523;PMS5003;66329;46.796;9.824;2023-01-26T16:55:19;6;6;
36523;PMS5003;66329;46.796;9.824;2023-01-26T16:57:48;6;5;
36523;PMS5003;66329;46.796;9.824;2023-01-26T17:00:16;8;8;
36523;PMS5003;66329;46.796;9.824;2023-01-26T17:02:45;6;6;
36523;PMS5003;66329;46.796;9.824;2023-01-26T17:05:15;6;6;
36523;PMS5003;66329;46.796;9.824;2023-01-26T17:07:44;7;7;
36523;PMS5003;66329;46.796;9.824;2023-01-26T17:10:13;6;6;
36523;PMS5003;66329;46.796;9.824;2023-01-26T17:12:42;6;6;